sensor_id;sensor_type;location;lat;lon;timestamp;P1;durP1;ratioP1;P2;durP2;ratioP2
77099;SDS011;66602;48.922;2.414;2023-10-13T00:01:53;5.95;;;3.58;;
77099;SDS011;66602;48.922;2.414;2023-10-13T00:04:20;8.50;;;3.70;;
77099;SDS011;66602;48.922;2.414;2023-10-13T00:06:53;6.53;;;3.50;;
77099;SDS011;66602;48.922;2.414;2023-10-13T00:09:25;5.40;;;3.30;;
77099;SDS011;66602;48.922;2.414;2023-10-13T00:11:54;12.95;;;3.58;;
77099;SDS011;66602;48.922;2.414;2023-10-13T00:14:21;7.60;;;3.40;;
77099;SDS011;66602;48.922;2.414;2023-10-13T00:16:47;12.65;;;3.67;;
77099;SDS011;66602;48.922;2.414;2023-10-13T00:19:32;7.90;;;3.72;;
77099;SDS011;66602;48.922;2.414;2023-10-13T00:22:17;7.28;;;4.28;;
77099;SDS011;66602;48.922;2.414;2023-10-13T00:24:47;12.40;;;3.83;;
77099;SDS011;66602;48.922;2.414;2023-10-13T00:27:17;13.93;;;3.53;;
77099;SDS011;66602;48.922;2.414;2023-10-13T00:29:53;7.80;;;3.60;;
77099;SDS011;66602;48.922;2.414;2023-10-13T00:32:48;7.70;;;4.00;;
77099;SDS011;66602;48.922;2.414;2023-10-13T00:35:20;6.50;;;3.38;;
77099;SDS011;66602;48.922;2.414;2023-10-13T00:38:01;9.30;;;3.85;;
77099;SDS011;66602;48.922;2.414;2023-10-13T00:40:39;9.07;;;4.85;;
77099;SDS011;66602;48.922;2.414;2023-10-13T00:43:05;10.57;;;4.28;;
77099;SDS011;66602;48.922;2.414;2023-10-13T00:45:55;9.55;;;4.05;;
77099;SDS011;66602;48.922;2.414;2023-10-13T00:50:54;11.55;;;4.78;;
77099;SDS011;66602;48.922;2.414;2023-10-13T00:53:22;11.73;;;4.55;;
77099;SDS011;66602;48.922;2.414;2023-10-13T00:55:50;8.45;;;4.45;;
77099;SDS011;66602;48.922;2.414;2023-10-13T00:58:16;9.63;;;4.53;;
77099;SDS011;66602;48.922;2.414;2023-10-13T01:00:49;10.93;;;4.60;;
77099;SDS011;66602;48.922;2.414;2023-10-13T01:03:21;8.68;;;4.10;;
77099;SDS011;66602;48.922;2.414;2023-10-13T01:05:52;10.45;;;4.38;;
77099;SDS011;66602;48.922;2.414;2023-10-13T01:08:30;10.85;;;3.97;;
77099;SDS011;66602;48.922;2.414;2023-10-13T01:11:02;8.65;;;4.88;;
77099;SDS011;66602;48.922;2.414;2023-10-13T01:13:32;7.55;;;3.95;;
77099;SDS011;66602;48.922;2.414;2023-10-13T01:16:01;8.82;;;4.53;;
77099;SDS011;66602;48.922;2.414;2023-10-13T01:18:27;8.45;;;4.30;;
77099;SDS011;66602;48.922;2.414;2023-10-13T01:20:54;10.68;;;4.40;;
77099;SDS011;66602;48.922;2.414;2023-10-13T01:23:24;17.58;;;4.43;;
77099;SDS011;66602;48.922;2.414;2023-10-13T01:25:53;10.60;;;4.95;;
77099;SDS011;66602;48.922;2.414;2023-10-13T01:28:21;17.42;;;5.28;;
77099;SDS011;66602;48.922;2.414;2023-10-13T01:30:47;10.65;;;4.53;;
77099;SDS011;66602;48.922;2.414;2023-10-13T01:33:16;9.27;;;4.50;;
77099;SDS011;66602;48.922;2.414;2023-10-13T01:35:42;15.35;;;4.63;;
77099;SDS011;66602;48.922;2.414;2023-10-13T01:38:12;9.20;;;4.93;;
77099;SDS011;66602;48.922;2.414;2023-10-13T01:40:39;17.00;;;5.25;;
77099;SDS011;66602;48.922;2.414;2023-10-13T01:43:04;18.30;;;5.03;;
77099;SDS011;66602;48.922;2.414;2023-10-13T01:45:36;18.65;;;5.15;;
77099;SDS011;66602;48.922;2.414;2023-10-13T01:48:04;13.75;;;5.28;;
77099;SDS011;66602;48.922;2.414;2023-10-13T01:50:32;7.80;;;4.47;;
77099;SDS011;66602;48.922;2.414;2023-10-13T01:53:01;9.02;;;4.40;;
77099;SDS011;66602;48.922;2.414;2023-10-13T01:55:42;14.82;;;4.68;;
77099;SDS011;66602;48.922;2.414;2023-10-13T01:58:14;10.98;;;5.07;;
77099;SDS011;66602;48.922;2.414;2023-10-13T02:00:44;18.52;;;5.60;;
77099;SDS011;66602;48.922;2.414;2023-10-13T02:03:12;9.00;;;5.35;;
77099;SDS011;66602;48.922;2.414;2023-10-13T02:05:45;16.48;;;5.10;;
77099;SDS011;66602;48.922;2.414;2023-10-13T02:08:18;9.70;;;5.30;;
77099;SDS011;66602;48.922;2.414;2023-10-13T02:10:51;13.00;;;5.30;;
77099;SDS011;66602;48.922;2.414;2023-10-13T02:13:18;12.90;;;5.30;;
77099;SDS011;66602;48.922;2.414;2023-10-13T02:15:45;11.10;;;4.63;;
77099;SDS011;66602;48.922;2.414;2023-10-13T02:18:16;15.27;;;5.10;;
77099;SDS011;66602;48.922;2.414;2023-10-13T02:20:46;9.32;;;5.00;;
77099;SDS011;66602;48.922;2.414;2023-10-13T02:25:45;15.88;;;5.40;;
77099;SDS011;66602;48.922;2.414;2023-10-13T02:28:17;15.77;;;4.75;;
77099;SDS011;66602;48.922;2.414;2023-10-13T02:30:46;10.50;;;4.55;;
77099;SDS011;66602;48.922;2.414;2023-10-13T02:33:18;10.20;;;4.63;;
77099;SDS011;66602;48.922;2.414;2023-10-13T02:35:46;9.93;;;5.10;;
77099;SDS011;66602;48.922;2.414;2023-10-13T02:38:21;10.57;;;5.43;;
77099;SDS011;66602;48.922;2.414;2023-10-13T02:41:11;19.35;;;5.55;;
77099;SDS011;66602;48.922;2.414;2023-10-13T02:43:53;19.23;;;5.45;;
77099;SDS011;66602;48.922;2.414;2023-10-13T02:46:19;14.68;;;6.10;;
77099;SDS011;66602;48.922;2.414;2023-10-13T02:48:49;14.07;;;5.97;;
77099;SDS011;66602;48.922;2.414;2023-10-13T02:51:22;10.93;;;5.00;;
77099;SDS011;66602;48.922;2.414;2023-10-13T02:54:00;13.32;;;4.80;;
77099;SDS011;66602;48.922;2.414;2023-10-13T02:56:28;9.57;;;5.40;;
77099;SDS011;66602;48.922;2.414;2023-10-13T02:58:55;12.18;;;5.03;;
77099;SDS011;66602;48.922;2.414;2023-10-13T03:01:30;16.25;;;5.30;;
77099;SDS011;66602;48.922;2.414;2023-10-13T03:03:59;12.85;;;5.45;;
77099;SDS011;66602;48.922;2.414;2023-10-13T03:06:25;10.27;;;5.47;;
77099;SDS011;66602;48.922;2.414;2023-10-13T03:08:58;8.60;;;4.38;;
77099;SDS011;66602;48.922;2.414;2023-10-13T03:11:43;12.85;;;5.00;;
77099;SDS011;66602;48.922;2.414;2023-10-13T03:16:58;13.38;;;5.30;;
77099;SDS011;66602;48.922;2.414;2023-10-13T03:19:30;20.42;;;5.15;;
77099;SDS011;66602;48.922;2.414;2023-10-13T03:22:03;20.60;;;5.78;;
77099;SDS011;66602;48.922;2.414;2023-10-13T03:24:37;19.30;;;5.50;;
77099;SDS011;66602;48.922;2.414;2023-10-13T03:27:12;9.57;;;4.68;;
77099;SDS011;66602;48.922;2.414;2023-10-13T03:29:42;12.43;;;4.90;;
77099;SDS011;66602;48.922;2.414;2023-10-13T03:32:09;8.52;;;5.28;;
77099;SDS011;66602;48.922;2.414;2023-10-13T03:34:43;16.65;;;4.88;;
77099;SDS011;66602;48.922;2.414;2023-10-13T03:37:25;10.65;;;4.93;;
77099;SDS011;66602;48.922;2.414;2023-10-13T03:40:07;14.23;;;4.88;;
77099;SDS011;66602;48.922;2.414;2023-10-13T03:42:58;15.73;;;5.15;;
77099;SDS011;66602;48.922;2.414;2023-10-13T03:45:35;10.25;;;4.93;;
77099;SDS011;66602;48.922;2.414;2023-10-13T03:48:13;10.32;;;5.13;;
77099;SDS011;66602;48.922;2.414;2023-10-13T03:50:54;10.38;;;5.22;;
77099;SDS011;66602;48.922;2.414;2023-10-13T03:53:39;12.18;;;5.45;;
77099;SDS011;66602;48.922;2.414;2023-10-13T03:56:22;12.70;;;4.75;;
77099;SDS011;66602;48.922;2.414;2023-10-13T03:58:51;12.05;;;4.90;;
77099;SDS011;66602;48.922;2.414;2023-10-13T04:01:40;15.77;;;4.90;;
77099;SDS011;66602;48.922;2.414;2023-10-13T04:04:08;4.95;;;4.55;;
77099;SDS011;66602;48.922;2.414;2023-10-13T04:06:43;9.93;;;4.60;;
77099;SDS011;66602;48.922;2.414;2023-10-13T04:09:18;12.35;;;5.32;;
77099;SDS011;66602;48.922;2.414;2023-10-13T04:11:54;9.52;;;5.38;;
77099;SDS011;66602;48.922;2.414;2023-10-13T04:14:28;12.67;;;4.53;;
77099;SDS011;66602;48.922;2.414;2023-10-13T04:17:12;12.98;;;4.75;;
77099;SDS011;66602;48.922;2.414;2023-10-13T04:19:41;10.65;;;5.38;;
77099;SDS011;66602;48.922;2.414;2023-10-13T04:22:25;7.10;;;4.40;;
77099;SDS011;66602;48.922;2.414;2023-10-13T04:25:18;9.65;;;4.32;;
77099;SDS011;66602;48.922;2.414;2023-10-13T04:28:02;18.75;;;4.22;;
77099;SDS011;66602;48.922;2.414;2023-10-13T04:30:55;10.93;;;4.50;;
77099;SDS011;66602;48.922;2.414;2023-10-13T04:33:23;12.13;;;5.05;;
77099;SDS011;66602;48.922;2.414;2023-10-13T04:36:16;13.13;;;4.90;;
77099;SDS011;66602;48.922;2.414;2023-10-13T04:38:58;17.63;;;5.15;;
77099;SDS011;66602;48.922;2.414;2023-10-13T04:44:15;11.27;;;5.38;;
77099;SDS011;66602;48.922;2.414;2023-10-13T04:47:00;12.55;;;4.82;;
77099;SDS011;66602;48.922;2.414;2023-10-13T04:49:29;12.30;;;4.40;;
77099;SDS011;66602;48.922;2.414;2023-10-13T04:52:00;6.68;;;4.32;;
77099;SDS011;66602;48.922;2.414;2023-10-13T04:54:42;9.07;;;5.28;;
77099;SDS011;66602;48.922;2.414;2023-10-13T04:57:14;7.30;;;4.93;;
77099;SDS011;66602;48.922;2.414;2023-10-13T04:59:47;13.50;;;4.80;;
77099;SDS011;66602;48.922;2.414;2023-10-13T05:02:32;14.88;;;5.88;;
77099;SDS011;66602;48.922;2.414;2023-10-13T05:05:01;13.48;;;4.78;;
77099;SDS011;66602;48.922;2.414;2023-10-13T05:07:39;14.20;;;4.85;;
77099;SDS011;66602;48.922;2.414;2023-10-13T05:10:24;15.00;;;4.63;;
77099;SDS011;66602;48.922;2.414;2023-10-13T05:13:08;11.00;;;4.32;;
77099;SDS011;66602;48.922;2.414;2023-10-13T05:15:53;12.85;;;5.22;;
77099;SDS011;66602;48.922;2.414;2023-10-13T05:18:37;7.45;;;5.07;;
77099;SDS011;66602;48.922;2.414;2023-10-13T05:21:22;10.10;;;5.25;;
77099;SDS011;66602;48.922;2.414;2023-10-13T05:24:06;10.13;;;4.82;;
77099;SDS011;66602;48.922;2.414;2023-10-13T05:26:51;6.70;;;4.88;;
77099;SDS011;66602;48.922;2.414;2023-10-13T05:29:39;10.45;;;5.43;;
77099;SDS011;66602;48.922;2.414;2023-10-13T05:32:25;9.88;;;4.80;;
77099;SDS011;66602;48.922;2.414;2023-10-13T05:35:09;8.73;;;5.18;;
77099;SDS011;66602;48.922;2.414;2023-10-13T05:37:54;14.23;;;5.15;;
77099;SDS011;66602;48.922;2.414;2023-10-13T05:40:39;6.90;;;5.03;;
77099;SDS011;66602;48.922;2.414;2023-10-13T05:43:23;4.95;;;4.50;;
77099;SDS011;66602;48.922;2.414;2023-10-13T05:46:07;5.95;;;5.25;;
77099;SDS011;66602;48.922;2.414;2023-10-13T05:48:54;6.03;;;4.93;;
77099;SDS011;66602;48.922;2.414;2023-10-13T05:51:26;14.85;;;5.72;;
77099;SDS011;66602;48.922;2.414;2023-10-13T05:54:08;6.17;;;5.50;;
77099;SDS011;66602;48.922;2.414;2023-10-13T05:56:48;9.52;;;5.28;;
77099;SDS011;66602;48.922;2.414;2023-10-13T05:59:34;7.53;;;5.20;;
77099;SDS011;66602;48.922;2.414;2023-10-13T06:02:22;12.98;;;5.70;;
77099;SDS011;66602;48.922;2.414;2023-10-13T06:05:11;5.75;;;5.35;;
77099;SDS011;66602;48.922;2.414;2023-10-13T06:07:57;12.52;;;5.50;;
77099;SDS011;66602;48.922;2.414;2023-10-13T06:10:42;9.52;;;5.55;;
77099;SDS011;66602;48.922;2.414;2023-10-13T06:13:26;11.07;;;5.93;;
77099;SDS011;66602;48.922;2.414;2023-10-13T06:16:12;10.85;;;5.28;;
77099;SDS011;66602;48.922;2.414;2023-10-13T06:18:58;6.95;;;5.93;;
77099;SDS011;66602;48.922;2.414;2023-10-13T06:21:43;9.98;;;5.20;;
77099;SDS011;66602;48.922;2.414;2023-10-13T06:24:28;6.28;;;5.78;;
77099;SDS011;66602;48.922;2.414;2023-10-13T06:27:13;7.57;;;5.55;;
77099;SDS011;66602;48.922;2.414;2023-10-13T06:29:58;8.65;;;7.22;;
77099;SDS011;66602;48.922;2.414;2023-10-13T06:32:23;8.40;;;6.38;;
77099;SDS011;66602;48.922;2.414;2023-10-13T06:34:55;6.18;;;5.78;;
77099;SDS011;66602;48.922;2.414;2023-10-13T06:37:30;19.88;;;5.75;;
77099;SDS011;66602;48.922;2.414;2023-10-13T06:39:57;12.68;;;6.40;;
77099;SDS011;66602;48.922;2.414;2023-10-13T06:42:39;9.75;;;5.50;;
77099;SDS011;66602;48.922;2.414;2023-10-13T06:45:08;7.18;;;5.93;;
77099;SDS011;66602;48.922;2.414;2023-10-13T06:47:37;8.68;;;5.72;;
77099;SDS011;66602;48.922;2.414;2023-10-13T06:50:14;8.32;;;5.80;;
77099;SDS011;66602;48.922;2.414;2023-10-13T06:52:43;11.48;;;6.05;;
77099;SDS011;66602;48.922;2.414;2023-10-13T06:55:09;6.25;;;5.72;;
77099;SDS011;66602;48.922;2.414;2023-10-13T06:57:49;6.90;;;5.55;;
77099;SDS011;66602;48.922;2.414;2023-10-13T07:00:16;5.88;;;5.38;;
77099;SDS011;66602;48.922;2.414;2023-10-13T07:02:53;10.00;;;5.70;;
77099;SDS011;66602;48.922;2.414;2023-10-13T07:05:19;7.22;;;6.53;;
77099;SDS011;66602;48.922;2.414;2023-10-13T07:07:44;7.35;;;5.22;;
77099;SDS011;66602;48.922;2.414;2023-10-13T07:10:11;6.35;;;5.70;;
77099;SDS011;66602;48.922;2.414;2023-10-13T07:12:38;6.10;;;5.70;;
77099;SDS011;66602;48.922;2.414;2023-10-13T07:15:10;8.68;;;5.68;;
77099;SDS011;66602;48.922;2.414;2023-10-13T07:17:44;7.97;;;5.35;;
77099;SDS011;66602;48.922;2.414;2023-10-13T07:20:12;7.32;;;5.43;;
77099;SDS011;66602;48.922;2.414;2023-10-13T07:22:59;8.20;;;5.45;;
77099;SDS011;66602;48.922;2.414;2023-10-13T07:25:28;5.88;;;5.38;;
77099;SDS011;66602;48.922;2.414;2023-10-13T07:28:05;7.80;;;4.93;;
77099;SDS011;66602;48.922;2.414;2023-10-13T07:30:34;5.70;;;5.20;;
77099;SDS011;66602;48.922;2.414;2023-10-13T07:33:26;9.10;;;5.07;;
77099;SDS011;66602;48.922;2.414;2023-10-13T07:38:36;9.05;;;5.65;;
77099;SDS011;66602;48.922;2.414;2023-10-13T07:41:03;10.02;;;6.07;;
77099;SDS011;66602;48.922;2.414;2023-10-13T07:43:34;16.85;;;4.93;;
77099;SDS011;66602;48.922;2.414;2023-10-13T07:46:02;6.07;;;5.03;;
77099;SDS011;66602;48.922;2.414;2023-10-13T07:51:49;6.72;;;5.60;;
77099;SDS011;66602;48.922;2.414;2023-10-13T07:54:22;7.97;;;5.07;;
77099;SDS011;66602;48.922;2.414;2023-10-13T07:56:48;7.63;;;4.75;;
77099;SDS011;66602;48.922;2.414;2023-10-13T07:59:13;16.02;;;6.05;;
77099;SDS011;66602;48.922;2.414;2023-10-13T08:01:42;5.85;;;5.18;;
77099;SDS011;66602;48.922;2.414;2023-10-13T08:04:08;9.10;;;5.22;;
77099;SDS011;66602;48.922;2.414;2023-10-13T08:06:36;8.07;;;4.90;;
77099;SDS011;66602;48.922;2.414;2023-10-13T08:09:13;13.80;;;5.20;;
77099;SDS011;66602;48.922;2.414;2023-10-13T08:12:05;5.85;;;4.93;;
77099;SDS011;66602;48.922;2.414;2023-10-13T08:14:36;10.35;;;4.95;;
77099;SDS011;66602;48.922;2.414;2023-10-13T08:17:04;5.20;;;4.75;;
77099;SDS011;66602;48.922;2.414;2023-10-13T08:19:33;6.72;;;4.88;;
77099;SDS011;66602;48.922;2.414;2023-10-13T08:22:05;12.82;;;5.20;;
77099;SDS011;66602;48.922;2.414;2023-10-13T08:24:47;9.18;;;5.20;;
77099;SDS011;66602;48.922;2.414;2023-10-13T08:27:13;6.18;;;4.95;;
77099;SDS011;66602;48.922;2.414;2023-10-13T08:32:19;8.80;;;4.90;;
77099;SDS011;66602;48.922;2.414;2023-10-13T08:34:54;11.13;;;4.30;;
77099;SDS011;66602;48.922;2.414;2023-10-13T08:37:27;11.73;;;4.88;;
77099;SDS011;66602;48.922;2.414;2023-10-13T08:39:53;10.90;;;5.32;;
77099;SDS011;66602;48.922;2.414;2023-10-13T08:47:59;10.07;;;4.85;;
77099;SDS011;66602;48.922;2.414;2023-10-13T08:50:38;9.35;;;4.72;;
77099;SDS011;66602;48.922;2.414;2023-10-13T08:58:38;15.65;;;5.03;;
77099;SDS011;66602;48.922;2.414;2023-10-13T09:01:30;9.77;;;4.50;;
77099;SDS011;66602;48.922;2.414;2023-10-13T09:04:16;6.28;;;4.72;;
77099;SDS011;66602;48.922;2.414;2023-10-13T09:09:31;9.90;;;4.75;;
77099;SDS011;66602;48.922;2.414;2023-10-13T09:12:11;10.82;;;4.55;;
77099;SDS011;66602;48.922;2.414;2023-10-13T09:14:42;8.07;;;4.45;;
77099;SDS011;66602;48.922;2.414;2023-10-13T09:17:22;9.77;;;4.82;;
77099;SDS011;66602;48.922;2.414;2023-10-13T09:20:08;4.88;;;4.20;;
77099;SDS011;66602;48.922;2.414;2023-10-13T09:22:54;9.88;;;3.95;;
77099;SDS011;66602;48.922;2.414;2023-10-13T09:25:32;4.75;;;4.32;;
77099;SDS011;66602;48.922;2.414;2023-10-13T09:30:43;5.35;;;4.00;;
77099;SDS011;66602;48.922;2.414;2023-10-13T09:33:11;7.82;;;4.47;;
77099;SDS011;66602;48.922;2.414;2023-10-13T09:35:53;10.32;;;4.57;;
77099;SDS011;66602;48.922;2.414;2023-10-13T09:38:25;4.55;;;4.25;;
77099;SDS011;66602;48.922;2.414;2023-10-13T09:40:53;4.82;;;4.32;;
77099;SDS011;66602;48.922;2.414;2023-10-13T09:43:41;12.27;;;4.50;;
77099;SDS011;66602;48.922;2.414;2023-10-13T09:46:08;13.10;;;4.10;;
77099;SDS011;66602;48.922;2.414;2023-10-13T09:48:46;10.32;;;4.55;;
77099;SDS011;66602;48.922;2.414;2023-10-13T09:51:17;10.05;;;4.22;;
77099;SDS011;66602;48.922;2.414;2023-10-13T09:56:46;15.45;;;4.18;;
77099;SDS011;66602;48.922;2.414;2023-10-13T09:59:22;4.35;;;3.67;;
77099;SDS011;66602;48.922;2.414;2023-10-13T10:02:03;14.43;;;4.18;;
77099;SDS011;66602;48.922;2.414;2023-10-13T10:04:34;13.60;;;3.97;;
77099;SDS011;66602;48.922;2.414;2023-10-13T10:07:23;9.93;;;4.25;;
77099;SDS011;66602;48.922;2.414;2023-10-13T10:09:57;7.38;;;4.10;;
77099;SDS011;66602;48.922;2.414;2023-10-13T10:12:31;6.45;;;4.38;;
77099;SDS011;66602;48.922;2.414;2023-10-13T10:15:29;11.95;;;4.05;;
77099;SDS011;66602;48.922;2.414;2023-10-13T10:18:01;14.57;;;4.68;;
77099;SDS011;66602;48.922;2.414;2023-10-13T10:20:28;5.22;;;3.88;;
77099;SDS011;66602;48.922;2.414;2023-10-13T10:23:06;7.57;;;4.03;;
77099;SDS011;66602;48.922;2.414;2023-10-13T10:25:37;10.38;;;4.40;;
77099;SDS011;66602;48.922;2.414;2023-10-13T10:28:09;9.70;;;4.78;;
77099;SDS011;66602;48.922;2.414;2023-10-13T10:30:42;6.25;;;4.15;;
77099;SDS011;66602;48.922;2.414;2023-10-13T10:33:09;9.00;;;4.40;;
77099;SDS011;66602;48.922;2.414;2023-10-13T10:35:45;9.80;;;4.95;;
77099;SDS011;66602;48.922;2.414;2023-10-13T10:41:03;5.25;;;4.07;;
77099;SDS011;66602;48.922;2.414;2023-10-13T10:46:18;12.77;;;4.78;;
77099;SDS011;66602;48.922;2.414;2023-10-13T10:48:52;14.77;;;5.05;;
77099;SDS011;66602;48.922;2.414;2023-10-13T10:51:26;9.95;;;4.60;;
77099;SDS011;66602;48.922;2.414;2023-10-13T10:53:57;5.60;;;4.55;;
77099;SDS011;66602;48.922;2.414;2023-10-13T10:56:36;8.82;;;4.80;;
77099;SDS011;66602;48.922;2.414;2023-10-13T10:59:02;12.20;;;4.75;;
77099;SDS011;66602;48.922;2.414;2023-10-13T11:01:30;8.55;;;4.93;;
77099;SDS011;66602;48.922;2.414;2023-10-13T11:04:12;10.30;;;5.07;;
77099;SDS011;66602;48.922;2.414;2023-10-13T11:06:53;6.28;;;4.70;;
77099;SDS011;66602;48.922;2.414;2023-10-13T11:09:30;5.40;;;4.85;;
77099;SDS011;66602;48.922;2.414;2023-10-13T11:14:39;7.65;;;4.35;;
77099;SDS011;66602;48.922;2.414;2023-10-13T11:17:05;11.77;;;4.43;;
77099;SDS011;66602;48.922;2.414;2023-10-13T11:19:44;9.88;;;4.45;;
77099;SDS011;66602;48.922;2.414;2023-10-13T11:22:16;8.77;;;5.00;;
77099;SDS011;66602;48.922;2.414;2023-10-13T11:25:00;9.52;;;4.25;;
77099;SDS011;66602;48.922;2.414;2023-10-13T11:27:36;8.25;;;4.30;;
77099;SDS011;66602;48.922;2.414;2023-10-13T11:30:15;5.60;;;4.13;;
77099;SDS011;66602;48.922;2.414;2023-10-13T11:35:34;11.85;;;4.43;;
77099;SDS011;66602;48.922;2.414;2023-10-13T11:38:19;10.88;;;4.63;;
77099;SDS011;66602;48.922;2.414;2023-10-13T11:43:40;10.52;;;4.70;;
77099;SDS011;66602;48.922;2.414;2023-10-13T11:46:12;6.97;;;4.45;;
77099;SDS011;66602;48.922;2.414;2023-10-13T11:48:43;14.25;;;4.13;;
77099;SDS011;66602;48.922;2.414;2023-10-13T11:51:12;10.90;;;4.85;;
77099;SDS011;66602;48.922;2.414;2023-10-13T11:53:49;16.13;;;4.93;;
77099;SDS011;66602;48.922;2.414;2023-10-13T11:56:19;9.23;;;5.28;;
77099;SDS011;66602;48.922;2.414;2023-10-13T11:58:48;12.77;;;4.53;;
77099;SDS011;66602;48.922;2.414;2023-10-13T12:01:14;7.10;;;3.83;;
77099;SDS011;66602;48.922;2.414;2023-10-13T12:03:44;15.38;;;4.50;;
77099;SDS011;66602;48.922;2.414;2023-10-13T12:06:29;8.90;;;4.75;;
77099;SDS011;66602;48.922;2.414;2023-10-13T12:09:04;10.05;;;5.45;;
77099;SDS011;66602;48.922;2.414;2023-10-13T12:11:56;21.10;;;4.60;;
77099;SDS011;66602;48.922;2.414;2023-10-13T12:14:25;9.85;;;4.68;;
77099;SDS011;66602;48.922;2.414;2023-10-13T12:17:03;9.43;;;4.13;;
77099;SDS011;66602;48.922;2.414;2023-10-13T12:19:29;5.57;;;3.95;;
77099;SDS011;66602;48.922;2.414;2023-10-13T12:21:56;10.45;;;4.05;;
77099;SDS011;66602;48.922;2.414;2023-10-13T12:24:23;11.13;;;4.40;;
77099;SDS011;66602;48.922;2.414;2023-10-13T12:27:18;8.10;;;3.97;;
77099;SDS011;66602;48.922;2.414;2023-10-13T12:29:47;9.07;;;4.60;;
77099;SDS011;66602;48.922;2.414;2023-10-13T12:32:13;8.40;;;4.28;;
77099;SDS011;66602;48.922;2.414;2023-10-13T12:34:45;6.78;;;4.45;;
77099;SDS011;66602;48.922;2.414;2023-10-13T12:37:40;15.40;;;4.88;;
77099;SDS011;66602;48.922;2.414;2023-10-13T12:40:09;13.07;;;4.45;;
77099;SDS011;66602;48.922;2.414;2023-10-13T12:42:56;10.38;;;4.07;;
77099;SDS011;66602;48.922;2.414;2023-10-13T12:45:40;9.00;;;3.72;;
77099;SDS011;66602;48.922;2.414;2023-10-13T12:48:25;12.45;;;4.45;;
77099;SDS011;66602;48.922;2.414;2023-10-13T12:51:09;12.18;;;4.20;;
77099;SDS011;66602;48.922;2.414;2023-10-13T12:53:53;20.48;;;4.88;;
77099;SDS011;66602;48.922;2.414;2023-10-13T12:56:19;18.63;;;4.93;;
77099;SDS011;66602;48.922;2.414;2023-10-13T12:58:51;10.73;;;5.10;;
77099;SDS011;66602;48.922;2.414;2023-10-13T13:01:18;6.03;;;3.88;;
77099;SDS011;66602;48.922;2.414;2023-10-13T13:03:46;8.43;;;4.75;;
77099;SDS011;66602;48.922;2.414;2023-10-13T13:06:30;9.80;;;4.38;;
77099;SDS011;66602;48.922;2.414;2023-10-13T13:08:56;8.25;;;4.85;;
77099;SDS011;66602;48.922;2.414;2023-10-13T13:11:22;10.60;;;4.63;;
77099;SDS011;66602;48.922;2.414;2023-10-13T13:13:48;8.02;;;4.80;;
77099;SDS011;66602;48.922;2.414;2023-10-13T13:16:15;14.80;;;6.18;;
77099;SDS011;66602;48.922;2.414;2023-10-13T13:18:44;16.85;;;6.32;;
77099;SDS011;66602;48.922;2.414;2023-10-13T13:21:10;18.88;;;4.78;;
77099;SDS011;66602;48.922;2.414;2023-10-13T13:23:38;16.67;;;4.30;;
77099;SDS011;66602;48.922;2.414;2023-10-13T13:26:05;8.13;;;4.07;;
77099;SDS011;66602;48.922;2.414;2023-10-13T13:28:44;12.82;;;4.75;;
77099;SDS011;66602;48.922;2.414;2023-10-13T13:31:10;16.00;;;5.00;;
77099;SDS011;66602;48.922;2.414;2023-10-13T13:33:40;9.63;;;4.45;;
77099;SDS011;66602;48.922;2.414;2023-10-13T13:36:08;11.25;;;5.40;;
77099;SDS011;66602;48.922;2.414;2023-10-13T13:38:40;9.02;;;3.83;;
77099;SDS011;66602;48.922;2.414;2023-10-13T13:41:11;23.38;;;4.43;;
77099;SDS011;66602;48.922;2.414;2023-10-13T13:43:42;18.30;;;5.55;;
77099;SDS011;66602;48.922;2.414;2023-10-13T13:46:21;22.42;;;4.65;;
77099;SDS011;66602;48.922;2.414;2023-10-13T13:48:52;10.40;;;4.03;;
77099;SDS011;66602;48.922;2.414;2023-10-13T13:51:28;12.57;;;4.47;;
77099;SDS011;66602;48.922;2.414;2023-10-13T13:53:54;9.45;;;4.00;;
77099;SDS011;66602;48.922;2.414;2023-10-13T13:56:21;6.30;;;4.10;;
77099;SDS011;66602;48.922;2.414;2023-10-13T13:58:50;7.38;;;4.10;;
77099;SDS011;66602;48.922;2.414;2023-10-13T14:01:32;12.68;;;4.65;;
77099;SDS011;66602;48.922;2.414;2023-10-13T14:04:00;10.45;;;5.65;;
77099;SDS011;66602;48.922;2.414;2023-10-13T14:06:28;14.70;;;4.88;;
77099;SDS011;66602;48.922;2.414;2023-10-13T14:08:55;14.77;;;5.35;;
77099;SDS011;66602;48.922;2.414;2023-10-13T14:11:25;23.27;;;5.70;;
77099;SDS011;66602;48.922;2.414;2023-10-13T14:14:11;13.30;;;4.47;;
77099;SDS011;66602;48.922;2.414;2023-10-13T14:16:40;19.67;;;4.50;;
77099;SDS011;66602;48.922;2.414;2023-10-13T14:19:15;11.48;;;4.53;;
77099;SDS011;66602;48.922;2.414;2023-10-13T14:22:00;17.10;;;5.07;;
77099;SDS011;66602;48.922;2.414;2023-10-13T14:24:31;18.02;;;4.97;;
77099;SDS011;66602;48.922;2.414;2023-10-13T14:27:02;10.00;;;5.75;;
77099;SDS011;66602;48.922;2.414;2023-10-13T14:29:36;9.95;;;4.38;;
77099;SDS011;66602;48.922;2.414;2023-10-13T14:32:08;14.57;;;4.88;;
77099;SDS011;66602;48.922;2.414;2023-10-13T14:34:40;9.70;;;4.75;;
77099;SDS011;66602;48.922;2.414;2023-10-13T14:37:06;10.73;;;5.88;;
77099;SDS011;66602;48.922;2.414;2023-10-13T14:39:32;12.75;;;5.95;;
77099;SDS011;66602;48.922;2.414;2023-10-13T14:42:03;13.30;;;6.00;;
77099;SDS011;66602;48.922;2.414;2023-10-13T14:44:33;11.45;;;5.05;;
77099;SDS011;66602;48.922;2.414;2023-10-13T14:47:00;8.43;;;4.70;;
77099;SDS011;66602;48.922;2.414;2023-10-13T14:49:26;10.10;;;5.93;;
77099;SDS011;66602;48.922;2.414;2023-10-13T14:51:52;12.10;;;4.78;;
77099;SDS011;66602;48.922;2.414;2023-10-13T14:54:20;14.38;;;5.30;;
77099;SDS011;66602;48.922;2.414;2023-10-13T14:56:58;15.18;;;5.45;;
77099;SDS011;66602;48.922;2.414;2023-10-13T14:59:27;17.85;;;4.90;;
77099;SDS011;66602;48.922;2.414;2023-10-13T15:01:57;11.10;;;4.93;;
77099;SDS011;66602;48.922;2.414;2023-10-13T15:04:24;13.25;;;5.25;;
77099;SDS011;66602;48.922;2.414;2023-10-13T15:06:50;14.60;;;5.97;;
77099;SDS011;66602;48.922;2.414;2023-10-13T15:09:15;9.43;;;5.38;;
77099;SDS011;66602;48.922;2.414;2023-10-13T15:11:48;10.45;;;4.72;;
77099;SDS011;66602;48.922;2.414;2023-10-13T15:14:17;21.75;;;5.40;;
77099;SDS011;66602;48.922;2.414;2023-10-13T15:16:45;14.48;;;5.30;;
77099;SDS011;66602;48.922;2.414;2023-10-13T15:19:11;11.13;;;4.55;;
77099;SDS011;66602;48.922;2.414;2023-10-13T15:21:37;13.55;;;6.68;;
77099;SDS011;66602;48.922;2.414;2023-10-13T15:24:05;11.40;;;5.10;;
77099;SDS011;66602;48.922;2.414;2023-10-13T15:26:46;21.08;;;5.35;;
77099;SDS011;66602;48.922;2.414;2023-10-13T15:29:15;18.40;;;5.40;;
77099;SDS011;66602;48.922;2.414;2023-10-13T15:31:42;18.15;;;5.78;;
77099;SDS011;66602;48.922;2.414;2023-10-13T15:34:26;17.08;;;5.72;;
77099;SDS011;66602;48.922;2.414;2023-10-13T15:36:54;21.25;;;5.38;;
77099;SDS011;66602;48.922;2.414;2023-10-13T15:39:21;12.00;;;4.97;;
77099;SDS011;66602;48.922;2.414;2023-10-13T15:41:53;16.17;;;4.93;;
77099;SDS011;66602;48.922;2.414;2023-10-13T15:44:23;11.15;;;4.80;;
77099;SDS011;66602;48.922;2.414;2023-10-13T15:46:53;19.15;;;5.38;;
77099;SDS011;66602;48.922;2.414;2023-10-13T15:49:20;16.63;;;5.40;;
77099;SDS011;66602;48.922;2.414;2023-10-13T15:51:46;11.75;;;5.47;;
77099;SDS011;66602;48.922;2.414;2023-10-13T15:54:12;10.93;;;4.07;;
77099;SDS011;66602;48.922;2.414;2023-10-13T15:56:43;15.60;;;4.88;;
77099;SDS011;66602;48.922;2.414;2023-10-13T15:59:10;12.20;;;4.65;;
77099;SDS011;66602;48.922;2.414;2023-10-13T16:01:36;10.52;;;4.90;;
77099;SDS011;66602;48.922;2.414;2023-10-13T16:04:04;17.88;;;5.25;;
77099;SDS011;66602;48.922;2.414;2023-10-13T16:06:39;26.70;;;5.70;;
77099;SDS011;66602;48.922;2.414;2023-10-13T16:09:06;17.20;;;5.13;;
77099;SDS011;66602;48.922;2.414;2023-10-13T16:11:44;14.60;;;5.38;;
77099;SDS011;66602;48.922;2.414;2023-10-13T16:14:12;23.00;;;5.22;;